createdAt,value
2022-11-23T00:02:20.651Z,97256.00
2022-11-23T00:04:50.596Z,97264.00
2022-11-23T00:07:23.685Z,97266.00
2022-11-23T00:09:53.561Z,97271.00
2022-11-23T00:12:23.437Z,97262.00
2022-11-23T00:14:53.247Z,97270.00
2022-11-23T00:17:23.044Z,97266.00
2022-11-23T00:19:52.891Z,97268.00
2022-11-23T00:22:25.324Z,97263.00
2022-11-23T00:24:55.222Z,97263.00
2022-11-23T00:27:25.097Z,97270.00
2022-11-23T00:29:55.775Z,97273.00
2022-11-23T00:32:25.602Z,97275.00
2022-11-23T00:34:55.510Z,97286.00
2022-11-23T00:37:28.729Z,97278.00
2022-11-23T00:39:59.306Z,97277.00
2022-11-23T00:42:33.766Z,97284.00
2022-11-23T00:45:07.187Z,97290.00
2022-11-23T00:47:37.083Z,97288.00
2022-11-23T00:50:09.352Z,97290.00
2022-11-23T00:52:42.300Z,97285.00
2022-11-23T00:55:12.437Z,97297.00
2022-11-23T00:57:42.335Z,97284.00
2022-11-23T01:00:14.472Z,97288.00
2022-11-23T01:02:44.283Z,97287.00
2022-11-23T01:05:14.293Z,97291.00
2022-11-23T01:07:46.833Z,97291.00
2022-11-23T01:10:16.779Z,97284.00
2022-11-23T01:12:47.554Z,97291.00
2022-11-23T01:15:17.559Z,97280.00
2022-11-23T01:17:47.583Z,97283.00
2022-11-23T01:20:18.633Z,97280.00
2022-11-23T01:22:51.429Z,97292.00
2022-11-23T01:25:21.540Z,97285.00
2022-11-23T01:27:51.457Z,97304.00
2022-11-23T01:30:24.224Z,97293.00
2022-11-23T01:32:54.637Z,97295.00
2022-11-23T01:35:24.517Z,97290.00
2022-11-23T01:37:57.936Z,97289.00
2022-11-23T01:40:27.873Z,97282.00
2022-11-23T01:42:59.782Z,97281.00
2022-11-23T01:45:41.852Z,97282.00
2022-11-23T01:48:16.284Z,97285.00
2022-11-23T01:50:47.729Z,97285.00
2022-11-23T01:53:20.852Z,97274.00
2022-11-23T01:55:52.654Z,97285.00
2022-11-23T01:58:24.412Z,97295.00
2022-11-23T02:00:55.215Z,97290.00
2022-11-23T02:03:25.514Z,97282.00
2022-11-23T02:06:01.679Z,97281.00
2022-11-23T02:08:34.736Z,97282.00
2022-11-23T02:11:04.934Z,97277.00
2022-11-23T02:13:35.448Z,97270.00
2022-11-23T02:16:06.212Z,97262.00
2022-11-23T02:18:37.730Z,97273.00
2022-11-23T02:21:08.005Z,97269.00
2022-11-23T02:23:47.236Z,97266.00
2022-11-23T02:26:22.107Z,97268.00
2022-11-23T02:28:55.365Z,97271.00
2022-11-23T02:31:25.937Z,97270.00
2022-11-23T02:33:57.363Z,97270.00
2022-11-23T02:36:40.011Z,97261.00
2022-11-23T02:39:15.384Z,97265.00
2022-11-23T02:41:49.797Z,97256.00
2022-11-23T02:44:33.168Z,97252.00
2022-11-23T02:47:03.145Z,97262.00
2022-11-23T02:49:35.222Z,97254.00
2022-11-23T02:52:05.924Z,97253.00
2022-11-23T02:54:36.404Z,97255.00
2022-11-23T02:57:09.842Z,97253.00
2022-11-23T02:59:43.114Z,97257.00
2022-11-23T03:02:13.225Z,97238.00
2022-11-23T03:04:43.341Z,97253.00
2022-11-23T03:07:13.241Z,97248.00
2022-11-23T03:09:43.112Z,97247.00
2022-11-23T03:12:16.483Z,97260.00
2022-11-23T03:14:46.882Z,97255.00
2022-11-23T03:17:16.780Z,97261.00
2022-11-23T03:19:48.850Z,97258.00
2022-11-23T03:22:18.759Z,97264.00
2022-11-23T03:24:50.193Z,97269.00
2022-11-23T03:27:22.825Z,97266.00
2022-11-23T03:29:54.042Z,97282.00
2022-11-23T03:32:24.517Z,97278.00
2022-11-23T03:34:57.632Z,97279.00
2022-11-23T03:37:28.273Z,97278.00
2022-11-23T03:39:58.132Z,97277.00
2022-11-23T03:42:54.200Z,97284.00
2022-11-23T03:45:24.200Z,97279.00
2022-11-23T03:47:54.424Z,97264.00
2022-11-23T03:50:24.986Z,97270.00
2022-11-23T03:52:54.893Z,97267.00
2022-11-23T03:55:24.859Z,97258.00
2022-11-23T03:57:59.731Z,97259.00
2022-11-23T04:00:32.584Z,97261.00
2022-11-23T04:03:02.466Z,97253.00
2022-11-23T04:05:55.442Z,97261.00
2022-11-23T04:08:43.846Z,97254.00
2022-11-23T04:11:19.935Z,97248.00
2022-11-23T04:13:55.547Z,97255.00
2022-11-23T04:16:25.747Z,97263.00
2022-11-23T04:18:55.823Z,97255.00
2022-11-23T04:21:25.941Z,97274.00
2022-11-23T04:23:55.995Z,97260.00
2022-11-23T04:26:26.499Z,97272.00
2022-11-23T04:28:59.934Z,97249.00
2022-11-23T04:31:30.382Z,97264.00
2022-11-23T04:34:13.348Z,97259.00
2022-11-23T04:36:43.582Z,97256.00
2022-11-23T04:39:15.533Z,97261.00
2022-11-23T04:42:15.848Z,97256.00
2022-11-23T04:44:55.144Z,97243.00
2022-11-23T04:47:27.252Z,97254.00
2022-11-23T04:49:59.484Z,97248.00
2022-11-23T04:52:29.429Z,97272.00
2022-11-23T04:55:00.779Z,97269.00
2022-11-23T04:57:33.528Z,97259.00
2022-11-23T05:00:08.122Z,97262.00
2022-11-23T05:02:40.136Z,97267.00
2022-11-23T05:05:21.256Z,97269.00
2022-11-23T05:07:52.724Z,97266.00
2022-11-23T05:10:25.552Z,97270.00
2022-11-23T05:12:59.830Z,97277.00
2022-11-23T05:15:34.124Z,97267.00
2022-11-23T05:18:06.547Z,97274.00
2022-11-23T05:20:37.458Z,97276.00
2022-11-23T05:23:08.239Z,97272.00
2022-11-23T05:25:41.768Z,97275.00
2022-11-23T05:28:39.158Z,97272.00
2022-11-23T05:31:12.103Z,97284.00
2022-11-23T05:33:42.176Z,97272.00
2022-11-23T05:36:14.862Z,97277.00
2022-11-23T05:38:45.692Z,97269.00
2022-11-23T05:41:23.083Z,97268.00
2022-11-23T05:43:57.336Z,97272.00
2022-11-23T05:46:33.166Z,97283.00
2022-11-23T05:49:03.038Z,97276.00
2022-11-23T05:51:38.407Z,97268.00
2022-11-23T05:54:09.338Z,97266.00
2022-11-23T05:56:43.592Z,97267.00
2022-11-23T05:59:18.706Z,97266.00
2022-11-23T06:02:00.272Z,97272.00
2022-11-23T06:04:34.771Z,97274.00
2022-11-23T06:07:05.838Z,97272.00
2022-11-23T06:09:47.557Z,97282.00
2022-11-23T06:12:17.961Z,97287.00
2022-11-23T06:14:48.057Z,97290.00
2022-11-23T06:17:24.240Z,97289.00
2022-11-23T06:19:57.737Z,97290.00
2022-11-23T06:22:28.504Z,97298.00
2022-11-23T06:25:09.187Z,97304.00
2022-11-23T06:27:42.794Z,97295.00
2022-11-23T06:30:27.911Z,97304.00
2022-11-23T06:33:05.945Z,97300.00
2022-11-23T06:35:41.855Z,97313.00
2022-11-23T06:38:11.949Z,97313.00
2022-11-23T06:40:42.364Z,97312.00
2022-11-23T06:43:13.473Z,97304.00
2022-11-23T06:45:48.015Z,97302.00
2022-11-23T06:48:21.430Z,97311.00
2022-11-23T06:50:52.311Z,97313.00
2022-11-23T06:53:24.817Z,97324.00
2022-11-23T06:56:02.684Z,97316.00
2022-11-23T06:58:36.000Z,97314.00
2022-11-23T07:01:12.368Z,97321.00
2022-11-23T07:03:51.325Z,97317.00
2022-11-23T07:06:29.502Z,97320.00
2022-11-23T07:09:03.929Z,97306.00
2022-11-23T07:12:00.230Z,97320.00
2022-11-23T07:14:30.742Z,97323.00
2022-11-23T07:17:01.715Z,97324.00
2022-11-23T07:19:34.514Z,97331.00
2022-11-23T07:22:04.924Z,97324.00
2022-11-23T07:24:40.467Z,97319.00
2022-11-23T07:27:13.514Z,97331.00
2022-11-23T07:29:43.549Z,97336.00
2022-11-23T07:32:15.892Z,97341.00
2022-11-23T07:34:49.214Z,97351.00
2022-11-23T07:37:21.061Z,97350.00
2022-11-23T07:39:58.079Z,97370.00
2022-11-23T07:42:35.679Z,97367.00
2022-11-23T07:45:08.618Z,97356.00
2022-11-23T07:47:40.795Z,97368.00
2022-11-23T07:50:15.762Z,97362.00
2022-11-23T07:52:46.756Z,97371.00
2022-11-23T07:55:17.276Z,97371.00
2022-11-23T07:57:48.292Z,97372.00
2022-11-23T08:00:21.376Z,97383.00
2022-11-23T08:03:25.458Z,97374.00
2022-11-23T08:05:43.998Z,97384.00
2022-11-23T08:08:15.230Z,97375.00
2022-11-23T08:10:51.423Z,97382.00
2022-11-23T08:13:24.243Z,97381.00
2022-11-23T08:15:56.052Z,97372.00
2022-11-23T08:18:28.404Z,97371.00
2022-11-23T08:21:03.086Z,97367.00
2022-11-23T08:23:33.467Z,97373.00
2022-11-23T08:26:09.087Z,97358.00
2022-11-23T08:28:42.337Z,97351.00
2022-11-23T08:31:13.298Z,97348.00
2022-11-23T08:33:44.526Z,97343.00
2022-11-23T08:36:17.825Z,97347.00
2022-11-23T08:38:47.679Z,97354.00
2022-11-23T08:41:20.622Z,97358.00
2022-11-23T08:43:51.485Z,97359.00
2022-11-23T08:46:21.805Z,97347.00
2022-11-23T08:48:51.659Z,97351.00
2022-11-23T08:51:25.198Z,97353.00
2022-11-23T08:53:55.263Z,97345.00
2022-11-23T08:56:25.209Z,97344.00
2022-11-23T08:58:55.950Z,97349.00
2022-11-23T09:01:27.174Z,97340.00
2022-11-23T09:03:58.331Z,97346.00
2022-11-23T09:06:32.758Z,97342.00
2022-11-23T09:09:02.987Z,97344.00
2022-11-23T09:11:32.941Z,97348.00
2022-11-23T09:14:03.056Z,97354.00
2022-11-23T09:16:34.304Z,97347.00
2022-11-23T09:19:04.911Z,97355.00
2022-11-23T09:21:39.517Z,97354.00
2022-11-23T09:24:10.532Z,97349.00
2022-11-23T09:26:41.221Z,97347.00
2022-11-23T09:29:14.573Z,97356.00
2022-11-23T09:31:44.460Z,97342.00
2022-11-23T09:34:15.808Z,97341.00
2022-11-23T09:36:48.610Z,97347.00
2022-11-23T09:39:18.735Z,97344.00
2022-11-23T09:42:03.440Z,97347.00
2022-11-23T09:44:45.869Z,97346.00
2022-11-23T09:47:30.103Z,97329.00
2022-11-23T09:50:05.004Z,97332.00
2022-11-23T09:52:38.684Z,97333.00
2022-11-23T09:55:15.183Z,97324.00
2022-11-23T09:57:47.267Z,97323.00
2022-11-23T10:00:20.477Z,97325.00
2022-11-23T10:02:50.404Z,97299.00
2022-11-23T10:05:23.460Z,97309.00
2022-11-23T10:08:06.368Z,97299.00
2022-11-23T10:10:42.592Z,97313.00
2022-11-23T10:13:32.546Z,97303.00
2022-11-23T10:16:17.467Z,97303.00
2022-11-23T10:18:54.249Z,97309.00
2022-11-23T10:21:32.655Z,97306.00
2022-11-23T10:24:14.368Z,97313.00
2022-11-23T10:26:47.042Z,97307.00
2022-11-23T10:29:20.149Z,97301.00
2022-11-23T10:31:57.072Z,97306.00
2022-11-23T10:34:43.832Z,97303.00
2022-11-23T10:37:15.891Z,97300.00
2022-11-23T10:39:48.415Z,97305.00
2022-11-23T10:42:23.721Z,97302.00
2022-11-23T10:44:55.539Z,97306.00
2022-11-23T10:47:41.499Z,97305.00
2022-11-23T10:50:30.302Z,97312.00
2022-11-23T10:53:51.345Z,97311.00
2022-11-23T10:56:30.618Z,97318.00
2022-11-23T10:59:00.892Z,97310.00
2022-11-23T11:01:32.849Z,97315.00
2022-11-23T11:04:06.361Z,97305.00
2022-11-23T11:06:37.393Z,97308.00
2022-11-23T11:09:13.449Z,97307.00
2022-11-23T11:11:50.954Z,97304.00
2022-11-23T11:14:23.453Z,97305.00
2022-11-23T11:16:55.798Z,97307.00
2022-11-23T11:19:30.518Z,97302.00
2022-11-23T11:22:02.467Z,97308.00
2022-11-23T11:24:36.515Z,97295.00
2022-11-23T11:27:15.915Z,97302.00
2022-11-23T11:29:50.760Z,97299.00
2022-11-23T11:32:25.671Z,97286.00
2022-11-23T11:34:58.364Z,97287.00
2022-11-23T11:37:35.574Z,97293.00
2022-11-23T11:40:11.416Z,97291.00
2022-11-23T11:42:48.141Z,97296.00
2022-11-23T11:45:20.996Z,97286.00
2022-11-23T11:47:54.968Z,97295.00
2022-11-23T11:50:31.957Z,97287.00
2022-11-23T11:53:07.363Z,97292.00
2022-11-23T11:55:51.728Z,97288.00
2022-11-23T11:58:27.487Z,97290.00
2022-11-23T12:01:03.542Z,97294.00
2022-11-23T12:03:43.035Z,97293.00
2022-11-23T12:06:23.670Z,97292.00
2022-11-23T12:09:01.846Z,97283.00
2022-11-23T12:11:31.885Z,97289.00
2022-11-23T12:14:06.615Z,97289.00
2022-11-23T12:16:42.793Z,97284.00
2022-11-23T12:19:19.642Z,97293.00
2022-11-23T12:22:07.482Z,97294.00
2022-11-23T12:24:49.248Z,97290.00
2022-11-23T12:27:28.661Z,97299.00
2022-11-23T12:30:19.423Z,97282.00
2022-11-23T12:33:04.361Z,97298.00
2022-11-23T12:36:00.108Z,97302.00
2022-11-23T12:38:35.162Z,97303.00
2022-11-23T12:41:33.485Z,97306.00
2022-11-23T12:44:52.057Z,97299.00
2022-11-23T12:47:35.152Z,97302.00
2022-11-23T12:50:13.884Z,97296.00
2022-11-23T12:52:58.410Z,97294.00
2022-11-23T12:55:32.346Z,97310.00
2022-11-23T12:58:08.390Z,97305.00
2022-11-23T13:00:44.184Z,97310.00
2022-11-23T13:03:41.444Z,97295.00
2022-11-23T13:07:20.416Z,97301.00
2022-11-23T13:09:59.587Z,97294.00
2022-11-23T13:12:44.058Z,97308.00
2022-11-23T13:15:28.050Z,97298.00
2022-11-23T13:18:03.383Z,97295.00
2022-11-23T13:21:19.174Z,97303.00
2022-11-23T13:23:49.815Z,97300.00
2022-11-23T13:26:24.746Z,97304.00
2022-11-23T13:28:57.200Z,97301.00
2022-11-23T13:31:31.862Z,97312.00
2022-11-23T13:34:04.277Z,97307.00
2022-11-23T13:40:04.547Z,97310.00
2022-11-23T13:42:37.049Z,97305.00
2022-11-23T13:45:27.040Z,97309.00
2022-11-23T13:48:48.802Z,97314.00
2022-11-23T13:51:09.755Z,97312.00
2022-11-23T13:53:44.413Z,97325.00
2022-11-23T13:56:35.567Z,97321.00
2022-11-23T13:59:31.257Z,97332.00
2022-11-23T14:02:04.208Z,97337.00
2022-11-23T14:04:35.857Z,97342.00
2022-11-23T14:07:07.142Z,97330.00
2022-11-23T14:09:47.315Z,97329.00
2022-11-23T14:12:22.006Z,97324.00
2022-11-23T14:14:56.873Z,97330.00
2022-11-23T14:18:06.607Z,97328.00
2022-11-23T14:20:44.574Z,97325.00
2022-11-23T14:23:36.972Z,97330.00
2022-11-23T14:26:22.370Z,97329.00
2022-11-23T14:29:06.779Z,97326.00
2022-11-23T14:31:42.636Z,97340.00
2022-11-23T14:34:20.742Z,97339.00
2022-11-23T14:36:56.833Z,97342.00
2022-11-23T14:39:54.879Z,97351.00
2022-11-23T14:42:29.889Z,97341.00
2022-11-23T14:45:04.863Z,97336.00
2022-11-23T14:47:36.557Z,97335.00
2022-11-23T14:50:07.293Z,97342.00
2022-11-23T14:52:39.449Z,97343.00
2022-11-23T14:55:13.571Z,97343.00
2022-11-23T14:57:49.352Z,97342.00
2022-11-23T15:00:32.843Z,97347.00
2022-11-23T15:03:27.142Z,97348.00
2022-11-23T15:05:58.616Z,97340.00
2022-11-23T15:08:32.854Z,97345.00
2022-11-23T15:11:08.523Z,97347.00
2022-11-23T15:13:49.756Z,97348.00
2022-11-23T15:16:21.659Z,97348.00
2022-11-23T15:18:52.361Z,97352.00
2022-11-23T15:21:27.239Z,97361.00
2022-11-23T15:24:00.466Z,97354.00
2022-11-23T15:26:47.851Z,97355.00
2022-11-23T15:29:39.789Z,97352.00
2022-11-23T15:32:31.323Z,97358.00
2022-11-23T15:35:04.735Z,97334.00
2022-11-23T15:37:37.320Z,97344.00
2022-11-23T15:40:09.069Z,97343.00
2022-11-23T15:42:40.233Z,97344.00
2022-11-23T15:45:41.235Z,97353.00
2022-11-23T15:48:15.148Z,97350.00
2022-11-23T15:50:52.660Z,97359.00
2022-11-23T15:53:27.652Z,97352.00
2022-11-23T15:55:57.788Z,97360.00
2022-11-23T15:58:27.982Z,97352.00
2022-11-23T16:01:07.334Z,97349.00
2022-11-23T16:03:41.631Z,97349.00
2022-11-23T16:06:28.442Z,97360.00
2022-11-23T16:08:58.458Z,97361.00
2022-11-23T16:11:35.263Z,97357.00
2022-11-23T16:14:16.050Z,97354.00
2022-11-23T16:16:50.911Z,97349.00
2022-11-23T16:19:27.289Z,97340.00
2022-11-23T16:22:02.450Z,97349.00
2022-11-23T16:24:35.740Z,97351.00
2022-11-23T16:27:15.463Z,97348.00
2022-11-23T16:29:45.373Z,97343.00
2022-11-23T16:32:29.099Z,97349.00
2022-11-23T16:35:01.514Z,97347.00
2022-11-23T16:37:32.038Z,97344.00
2022-11-23T16:40:01.932Z,97343.00
2022-11-23T16:42:31.866Z,97343.00
2022-11-23T16:45:02.486Z,97333.00
2022-11-23T16:47:34.956Z,97346.00
2022-11-23T16:50:05.275Z,97338.00
2022-11-23T16:52:35.259Z,97350.00
2022-11-23T16:55:05.261Z,97349.00
2022-11-23T16:57:37.180Z,97337.00
2022-11-23T17:00:10.420Z,97348.00
2022-11-23T17:02:43.644Z,97351.00
2022-11-23T17:05:18.195Z,97351.00
2022-11-23T17:07:48.354Z,97355.00
2022-11-23T17:10:18.662Z,97348.00
2022-11-23T17:12:52.943Z,97357.00
2022-11-23T17:15:24.797Z,97356.00
2022-11-23T17:17:58.366Z,97367.00
2022-11-23T17:20:29.424Z,97359.00
2022-11-23T17:23:01.275Z,97363.00
2022-11-23T17:25:31.132Z,97363.00
2022-11-23T17:28:02.076Z,97354.00
2022-11-23T17:30:33.025Z,97354.00
2022-11-23T17:33:06.225Z,97353.00
2022-11-23T17:35:38.266Z,97354.00
2022-11-23T17:38:09.437Z,97350.00
2022-11-23T17:40:39.836Z,97360.00
2022-11-23T17:43:09.789Z,97353.00
2022-11-23T17:45:39.899Z,97362.00
2022-11-23T17:48:13.667Z,97362.00
2022-11-23T17:50:43.678Z,97370.00
2022-11-23T17:53:13.955Z,97374.00
2022-11-23T17:55:45.293Z,97386.00
2022-11-23T17:58:15.448Z,97389.00
2022-11-23T18:00:45.604Z,97392.00
2022-11-23T18:03:18.349Z,97392.00
2022-11-23T18:05:49.166Z,97390.00
2022-11-23T18:08:19.000Z,97380.00
2022-11-23T18:10:48.929Z,97372.00
2022-11-23T18:13:19.086Z,97378.00
2022-11-23T18:15:49.042Z,97363.00
2022-11-23T18:18:21.477Z,97371.00
2022-11-23T18:20:51.372Z,97372.00
2022-11-23T18:23:21.332Z,97362.00
2022-11-23T18:26:01.267Z,97363.00
2022-11-23T18:28:32.178Z,97374.00
2022-11-23T18:31:02.828Z,97374.00
2022-11-23T18:33:35.385Z,97385.00
2022-11-23T18:36:05.834Z,97381.00
2022-11-23T18:38:37.652Z,97383.00
2022-11-23T18:41:08.066Z,97390.00
2022-11-23T18:43:38.117Z,97380.00
2022-11-23T18:46:10.295Z,97380.00
2022-11-23T18:48:42.842Z,97380.00
2022-11-23T18:51:13.483Z,97388.00
2022-11-23T18:53:44.857Z,97378.00
2022-11-23T18:56:14.709Z,97389.00
2022-11-23T18:58:46.784Z,97395.00
2022-11-23T19:01:18.455Z,97386.00
2022-11-23T19:03:52.873Z,97400.00
2022-11-23T19:06:25.007Z,97389.00
2022-11-23T19:08:58.393Z,97391.00
2022-11-23T19:11:29.818Z,97385.00
2022-11-23T19:14:01.616Z,97389.00
2022-11-23T19:16:33.233Z,97395.00
2022-11-23T19:19:07.694Z,97400.00
2022-11-23T19:21:39.226Z,97381.00
2022-11-23T19:24:11.775Z,97388.00
2022-11-23T19:26:42.107Z,97391.00
2022-11-23T19:29:13.760Z,97395.00
2022-11-23T19:31:43.731Z,97400.00
2022-11-23T19:34:16.287Z,97405.00
2022-11-23T19:36:46.280Z,97396.00
2022-11-23T19:39:16.890Z,97401.00
2022-11-23T19:41:47.162Z,97395.00
2022-11-23T19:44:17.017Z,97394.00
2022-11-23T19:46:47.093Z,97406.00
2022-11-23T19:49:19.576Z,97397.00
2022-11-23T19:51:52.392Z,97404.00
2022-11-23T19:54:22.285Z,97410.00
2022-11-23T19:56:52.625Z,97406.00
2022-11-23T19:59:22.448Z,97409.00
2022-11-23T20:01:52.312Z,97407.00
2022-11-23T20:04:25.049Z,97408.00
2022-11-23T20:06:54.945Z,97400.00
2022-11-23T20:09:27.805Z,97411.00
2022-11-23T20:11:57.723Z,97412.00
2022-11-23T20:14:27.555Z,97426.00
2022-11-23T20:16:57.404Z,97428.00
2022-11-23T20:19:29.892Z,97425.00
2022-11-23T20:21:59.968Z,97425.00
2022-11-23T20:24:29.837Z,97421.00
2022-11-23T20:26:59.700Z,97417.00
2022-11-23T20:29:29.994Z,97435.00
2022-11-23T20:31:59.905Z,97423.00
2022-11-23T20:34:32.442Z,97419.00
2022-11-23T20:37:02.826Z,97440.00
2022-11-23T20:39:32.914Z,97432.00
2022-11-23T20:42:03.597Z,97434.00
2022-11-23T20:44:34.267Z,97439.00
2022-11-23T20:47:05.149Z,97432.00
2022-11-23T20:49:38.056Z,97433.00
2022-11-23T20:52:08.822Z,97433.00
2022-11-23T20:54:38.652Z,97427.00
2022-11-23T20:57:09.909Z,97425.00
2022-11-23T20:59:39.753Z,97434.00
2022-11-23T21:02:11.878Z,97435.00
2022-11-23T21:04:44.467Z,97431.00
2022-11-23T21:07:14.340Z,97431.00
2022-11-23T21:09:44.171Z,97437.00
2022-11-23T21:12:26.391Z,97441.00
2022-11-23T21:14:56.860Z,97441.00
2022-11-23T21:17:26.701Z,97443.00
2022-11-23T21:19:59.531Z,97446.00
2022-11-23T21:22:29.692Z,97449.00
2022-11-23T21:25:00.302Z,97454.00
2022-11-23T21:27:30.146Z,97445.00
2022-11-23T21:30:01.155Z,97447.00
2022-11-23T21:32:31.136Z,97455.00
2022-11-23T21:35:03.693Z,97448.00
2022-11-23T21:37:33.630Z,97448.00
2022-11-23T21:40:03.687Z,97455.00
2022-11-23T21:42:34.596Z,97455.00
2022-11-23T21:45:04.427Z,97459.00
2022-11-23T21:47:35.289Z,97468.00
2022-11-23T21:50:08.725Z,97467.00
2022-11-23T21:52:38.597Z,97474.00
2022-11-23T21:55:10.049Z,97469.00
2022-11-23T21:57:39.865Z,97459.00
2022-11-23T22:00:11.706Z,97473.00
2022-11-23T22:02:42.112Z,97471.00
2022-11-23T22:05:15.050Z,97471.00
2022-11-23T22:08:00.467Z,97470.00
2022-11-23T22:10:34.855Z,97475.00
2022-11-23T22:13:05.448Z,97478.00
2022-11-23T22:15:35.369Z,97479.00
2022-11-23T22:18:05.614Z,97477.00
2022-11-23T22:20:39.052Z,97484.00
2022-11-23T22:23:09.220Z,97495.00
2022-11-23T22:25:40.975Z,97492.00
2022-11-23T22:28:12.935Z,97496.00
2022-11-23T22:30:42.928Z,97495.00
2022-11-23T22:33:13.643Z,97495.00
2022-11-23T22:35:46.874Z,97495.00
2022-11-23T22:38:16.794Z,97493.00
2022-11-23T22:40:49.272Z,97490.00
2022-11-23T22:43:19.422Z,97495.00
2022-11-23T22:45:49.968Z,97492.00
2022-11-23T22:48:19.974Z,97493.00
2022-11-23T22:51:00.442Z,97498.00
2022-11-23T22:53:31.439Z,97500.00
2022-11-23T22:56:03.940Z,97504.00
2022-11-23T22:58:35.098Z,97502.00
2022-11-23T23:01:09.284Z,97500.00
2022-11-23T23:03:39.364Z,97495.00
2022-11-23T23:06:18.106Z,97495.00
2022-11-23T23:08:49.335Z,97499.00
2022-11-23T23:11:19.250Z,97515.00
2022-11-23T23:13:49.128Z,97505.00
2022-11-23T23:16:19.132Z,97497.00
2022-11-23T23:18:49.095Z,97509.00
2022-11-23T23:21:23.323Z,97522.00
2022-11-23T23:23:54.653Z,97523.00
2022-11-23T23:26:26.331Z,97520.00
2022-11-23T23:28:57.166Z,97529.00
2022-11-23T23:31:27.409Z,97522.00
2022-11-23T23:33:57.444Z,97519.00
2022-11-23T23:36:30.088Z,97517.00
2022-11-23T23:39:00.644Z,97529.00
2022-11-23T23:41:30.551Z,97528.00
2022-11-23T23:44:00.759Z,97528.00
2022-11-23T23:46:30.768Z,97531.00
2022-11-23T23:49:01.900Z,97533.00
2022-11-23T23:51:34.471Z,97535.00
2022-11-23T23:54:05.504Z,97541.00
2022-11-23T23:56:35.419Z,97541.00
2022-11-23T23:59:05.461Z,97544.00
